x

Patapsco, Md (44043) Weather Station

12:40am - Tue 29th Jul 2014 All times are EDT. -4 hours from GMT.

  • Wind
    20mph, 22mph gusts
  • Air Temp 72°f
  • Sea Pressure 1010mb
  • Patapsco, Md
  • Patapsco, Md

More Historic Weather Station data

Upgrade to MSW Pro to gain access to the past 30 days of data for over 8000 Wavebouys and Weather Stations around the globe.

Join Pro

Comparision Forecast

View Surf forecast
   
Tue 07/29 12:40am  -   -  20 22 mph 1010mb - 72f
12:30am  -   -  20 25 mph 1009.9mb - 73f
12:20am  -   -  20 25 mph 1009.9mb - 73f
12:10am  -   -  20 25 mph 1009.8mb - 73f
12:00am 1.3ft 2s 20 25 mph 1009.8mb 79f 73f
Mon 07/28 11:50pm  -   -  20 27 mph 1009.6mb - 73f
11:40pm  -   -  20 25 mph 1009.7mb - 73f
11:30pm  -   -  20 25 mph 1009.7mb - 73f
11:20pm  -   -  20 25 mph 1009.7mb - 73f
11:10pm  -   -  18 25 mph 1009.7mb - 73f
11:00pm 1.3ft 2s 18 27 mph 1009.7mb 79f 73f
10:50pm  -   -  18 22 mph 1009.6mb - 73f
10:40pm  -   -  16 20 mph 1009.6mb - 73f
10:30pm  -   -  13 18 mph 1009.5mb - 73f
10:20pm  -   -  13 18 mph 1009.5mb - 73f
10:10pm  -   -  16 20 mph 1009.5mb - 73f
10:00pm 2ft 3s 18 22 mph 1009.4mb 79f 73f
9:50pm  -   -  20 25 mph 1009.2mb - 73f
9:40pm  -   -  20 25 mph 1009mb - 74f
9:30pm  -   -  22 27 mph 1008.7mb - 74f
9:20pm  -   -  25 31 mph 1008.4mb - 75f
9:10pm  -   -  22 29 mph 1008.2mb - 75f
9:00pm 2ft 3s 22 29 mph 1008mb 79f 76f
8:50pm  -   -  22 29 mph 1007.6mb - 76f
8:40pm  -   -  22 34 mph 1007.3mb - 77f
8:30pm  -   -  22 27 mph 1007.1mb - 78f
8:20pm  -   -  22 27 mph 1006.9mb - 78f
8:10pm  -   -  25 29 mph 1006.8mb - 78f
8:00pm 1.6ft 3s 25 29 mph 1006.6mb 79f 78f
7:50pm  -   -  22 27 mph 1006.5mb - 79f
7:40pm  -   -  20 27 mph 1006.4mb - 79f
7:30pm  -   -  20 27 mph 1006.3mb - 79f
7:20pm  -   -  22 27 mph 1006.1mb - 80f
7:10pm  -   -  22 29 mph 1006mb - 80f
7:00pm 1.6ft 3s 20 25 mph 1006mb 80f 80f
6:50pm  -   -  20 25 mph 1006mb - 80f
6:40pm  -   -  22 27 mph 1005.9mb - 80f
6:30pm  -   -  22 29 mph 1005.8mb - 81f
6:20pm  -   -  22 25 mph 1005.8mb - 81f
6:10pm  -   -  22 27 mph 1005.8mb - 81f
6:00pm 1.6ft 3s 20 27 mph 1005.7mb 80f 81f
5:50pm  -   -  18 25 mph 1005.6mb - 80f
5:40pm  -   -  22 27 mph 1005.4mb - 80f
5:30pm  -   -  20 29 mph 1005.4mb - 80f
5:20pm  -   -  20 27 mph 1005.4mb - 80f
5:10pm  -   -  25 29 mph 1005.2mb - 80f
5:00pm 1.6ft 3s 25 29 mph 1005mb 80f 81f
4:50pm  -   -  20 25 mph 1005mb - 81f
4:40pm  -   -  20 25 mph 1004.9mb - 81f
4:30pm  -   -  22 29 mph 1004.8mb - 81f
4:20pm  -   -  22 29 mph 1004.7mb - 81f
4:10pm  -   -  18 25 mph 1004.8mb - 81f
4:00pm 1.6ft 3s 20 25 mph 1004.7mb 80f 81f
3:50pm  -   -  20 29 mph 1004.7mb - 81f
3:40pm  -   -  20 27 mph 1004.6mb - 82f
3:30pm  -   -  22 27 mph 1004.5mb - 82f
3:20pm  -   -  20 27 mph 1004.5mb - 82f
3:10pm  -   -  22 27 mph 1004.4mb - 82f
3:00pm 1.6ft 3s 20 27 mph 1004.4mb 80f 82f
2:50pm  -   -  20 27 mph 1004.4mb - 82f
2:40pm  -   -  20 27 mph 1004.4mb - 81f
2:30pm  -   -  18 25 mph 1004.3mb - 81f
2:20pm  -   -  22 29 mph 1004.3mb - 81f
2:10pm  -   -  22 29 mph 1004.4mb - 81f
2:00pm 1.6ft 3s 22 29 mph 1004.4mb 80f 80f
1:50pm  -   -  18 25 mph 1004.5mb - 80f
1:40pm  -   -  20 25 mph 1004.6mb - 80f
1:30pm  -   -  20 27 mph 1004.7mb - 80f
1:20pm  -   -  20 29 mph 1004.7mb - 80f
1:10pm  -   -  20 27 mph 1004.6mb - 80f
1:00pm 1.6ft 3s 18 20 mph 1004.7mb 80f 80f
12:50pm  -   -  20 27 mph 1004.7mb - 80f
12:40pm  -   -  22 29 mph 1004.7mb - 80f
12:30pm  -   -  20 29 mph 1004.6mb - 80f
12:20pm  -   -  16 20 mph 1004.5mb - 80f
12:10pm  -   -  16 20 mph 1004.5mb - 80f
12:00pm 2ft 3s 18 20 mph 1004.5mb 79f 80f
11:50am  -   -  20 25 mph 1004.5mb - 80f
11:40am  -   -  20 25 mph 1004.4mb - 80f
11:30am  -   -  20 27 mph 1004.3mb - 80f
11:20am  -   -  20 25 mph 1004.2mb - 80f
11:10am  -   -  22 27 mph 1004.1mb - 80f
11:00am 1.6ft 3s 22 27 mph 1004.1mb 79f 80f
10:50am  -   -  22 27 mph 1004mb - 80f
10:40am  -   -  22 27 mph 1004mb - 80f
10:30am  -   -  22 27 mph 1003.9mb - 80f
10:20am  -   -  20 27 mph 1004mb - 80f
10:10am  -   -  20 25 mph 1003.9mb - 80f
10:00am 1.6ft 2s 18 27 mph 1003.8mb 79f 80f
9:50am  -   -  20 25 mph 1003.7mb - 80f
9:40am  -   -  18 27 mph 1003.6mb - 79f
9:30am  -   -  18 25 mph 1003.6mb - 79f
9:20am  -   -  20 25 mph 1003.5mb - 79f
9:10am  -   -  20 27 mph 1003.4mb - 80f
9:00am 1ft 2s 20 31 mph 1003.3mb 79f 79f
8:50am  -   -  18 22 mph 1003.3mb - 79f
8:40am  -   -  16 20 mph 1003.1mb - 78f
8:30am  -   -  16 20 mph 1003mb - 78f
8:20am  -   -  16 18 mph 1003mb - 78f
8:10am  -   -  16 20 mph 1002.8mb - 78f
8:00am 0.7ft  -  16 20 mph 1002.8mb 79f 77f
7:50am  -   -  16 18 mph 1002.8mb - 77f
7:40am  -   -  13 18 mph 1002.7mb - 77f
7:30am  -   -  16 18 mph 1002.8mb - 76f
7:20am  -   -  16 20 mph 1002.8mb - 76f
7:10am  -   -  13 18 mph 1002.8mb - 76f
7:00am 0.7ft  -  13 16 mph 1002.8mb 79f 75f
6:50am  -   -  13 16 mph 1002.7mb - 75f
6:40am  -   -  13 16 mph 1002.7mb - 75f
6:30am  -   -  13 16 mph 1002.5mb - 75f
6:20am  -   -  11 16 mph 1002.3mb - 75f
6:10am  -   -  11 13 mph 1002.2mb - 75f
6:00am 0.3ft  -  11 13 mph 1002.2mb 80f 75f
5:50am  -   -  9 13 mph 1002.2mb - 75f
5:40am  -   -  11
mph
1002.2mb - 76f
5:30am  -   -  11 13 mph 1002.2mb - 76f
5:20am  -   -  11 13 mph 1002.2mb - 76f
5:10am  -   -  9 11 mph 1002.2mb - 76f
5:00am 0.7ft  -  9 11 mph 1002.2mb 80f 76f
4:50am  -   -  9 11 mph 1002.3mb - 76f
4:40am  -   -  9 11 mph 1002.2mb - 76f
4:30am  -   -  7 9 mph 1002.1mb - 76f
4:20am  -   -  4 7 mph 1002.2mb - 76f
4:10am  -   -  4
mph
1002.5mb - 76f
4:00am 0.7ft  -  4
mph
1002.6mb 80f 76f
3:50am  -   -  2 4 mph 1002.7mb - 76f
3:40am  -   -  2
mph
1002.6mb - 76f
3:30am  -   -  2 4 mph 1002.6mb - 76f
3:20am  -   -  2 4 mph 1002.6mb - 76f
3:10am  -   -  2
mph
1002.6mb - 76f
3:00am 1ft 2s 2
mph
1002.5mb 80f 75f
2:50am  -   -  2 4 mph 1002.4mb - 75f
2:40am  -   -  4
mph
1002.5mb - 75f
2:30am  -   -  4 9 mph 1002.7mb - 75f
2:20am  -   -  7 9 mph 1002.8mb - 74f
2:10am  -   -  9 11 mph 1002.9mb - 74f
2:00am 0.7ft  -  7 13 mph 1003.2mb 80f 75f
1:50am  -   -  7 16 mph 1003mb - 79f
1:40am  -   -  4 7 mph 1003.2mb - 79f
1:30am  -   -  4 7 mph 1003.2mb - 79f
1:20am  -   -  7 9 mph 1003.4mb - 79f
1:10am  -   -  7 9 mph 1003.3mb - 78f
1:00am 1ft 3s 7 9 mph 1003.4mb 80f 78f
12:50am  -   -  4 7 mph 1003.6mb - 78f
12:40am  -   -  7 9 mph 1003.9mb - 78f
12:30am  -   -  9 13 mph 1004.2mb - 79f
12:20am  -   -  11 13 mph 1004.3mb - 80f
12:10am  -   -  11 16 mph 1004.3mb - 80f
12:00am 1.3ft 2s 13 16 mph 1004.1mb 80f 80f
Sun 07/27 11:50pm  -   -  13 16 mph 1004mb - 80f
11:40pm  -   -  13 18 mph 1004.1mb - 80f
11:30pm  -   -  13 18 mph 1004.3mb - 80f
11:20pm  -   -  13 16 mph 1004.6mb - 80f
11:10pm  -   -  13 18 mph 1004.9mb - 80f
11:00pm 1.3ft 2s 16 18 mph 1005mb 80f 80f
10:50pm  -   -  16 18 mph 1004.9mb - 80f
10:40pm  -   -  16 18 mph 1004.8mb - 80f
10:30pm  -   -  13 16 mph 1004.9mb - 80f
10:20pm  -   -  13 16 mph 1005.2mb - 80f
10:10pm  -   -  13 16 mph 1005.3mb - 81f
10:00pm 1ft 2s 13 16 mph 1005.4mb 80f 81f
9:50pm  -   -  11 16 mph 1005.5mb - 81f
9:40pm  -   -  13 16 mph 1005.5mb - 81f
9:30pm  -   -  11 16 mph 1005.7mb - 81f
9:20pm  -   -  13 16 mph 1005.7mb - 81f
9:10pm  -   -  13 18 mph 1005.6mb - 81f
9:00pm 1ft 2s 13 16 mph 1005.7mb 80f 81f
8:50pm  -   -  11 13 mph 1006mb - 81f
8:40pm  -   -  9 13 mph 1006.3mb - 81f
8:30pm  -   -  9 11 mph 1006.6mb - 81f
8:20pm  -   -  9 11 mph 1006.5mb - 81f
8:10pm  -   -  11 16 mph 1006.4mb - 82f
8:00pm 1.6ft 2s 11 16 mph 1006.2mb 80f 82f
7:50pm  -   -  13 16 mph 1006.2mb - 82f
7:40pm  -   -  13 18 mph 1006.1mb - 82f
7:30pm  -   -  13 18 mph 1006mb - 82f
7:20pm  -   -  16 18 mph 1006mb - 82f
7:10pm  -   -  16 20 mph 1006mb - 82f
7:00pm 1.6ft 3s 16 20 mph 1006mb 81f 82f
6:50pm  -   -  16 18 mph 1005.9mb - 81f
6:40pm  -   -  16 20 mph 1005.7mb - 81f
6:30pm  -   -  18 20 mph 1005.8mb - 81f
6:20pm  -   -  16 18 mph 1006mb - 81f
6:10pm  -   -  16 20 mph 1006.1mb - 81f
6:00pm 1.6ft 3s 13 18 mph 1006.5mb 81f 82f
5:50pm  -   -  13 16 mph 1006.7mb - 83f
5:40pm  -   -  13 16 mph 1006.8mb - 83f
5:30pm  -   -  16 20 mph 1007mb - 83f
5:20pm  -   -  16 20 mph 1007.1mb - 82f
5:10pm  -   -  16 20 mph 1007.3mb - 82f
5:00pm 1.3ft 3s 18 22 mph 1007.3mb 82f 82f
4:50pm  -   -  18 20 mph 1007.3mb - 82f
4:40pm  -   -  13 18 mph 1007.3mb - 83f
4:30pm  -   -  13 16 mph 1007.4mb - 83f
4:20pm  -   -  13 16 mph 1007.6mb - 83f
4:10pm  -   -  16 18 mph 1007.7mb - 83f
4:00pm 1.3ft 3s 16 20 mph 1007.9mb 82f 82f
3:50pm  -   -  16 18 mph 1008mb - 82f
3:40pm  -   -  16 18 mph 1008.1mb - 83f
3:30pm  -   -  13 18 mph 1008.2mb - 83f
3:20pm  -   -  16 18 mph 1008.3mb - 82f
3:10pm  -   -  16 20 mph 1008.5mb - 83f
3:00pm 1ft 2s 16 20 mph 1008.5mb 80f 83f
2:50pm  -   -  13 16 mph 1008.5mb - 83f
2:40pm  -   -  13 18 mph 1008.6mb - 83f
2:30pm  -   -  13 18 mph 1008.7mb - 83f
2:20pm  -   -  11 16 mph 1008.7mb - 82f
2:10pm  -   -  11 16 mph 1008.8mb - 82f
2:00pm 1ft 2s 13 16 mph 1008.8mb 80f 82f
1:50pm  -   -  13 16 mph 1008.9mb - 81f
1:40pm  -   -  13 18 mph 1008.9mb - 81f
1:30pm  -   -  13 16 mph 1009mb - 81f
1:20pm  -   -  13 16 mph 1009.1mb - 81f
1:10pm  -   -  9 13 mph 1009.1mb - 81f
1:00pm 0.7ft  -  7 11 mph 1009.1mb 80f 81f
12:50pm  -   -  7 9 mph 1009.3mb - 81f
12:40pm  -   -  7 9 mph 1009.2mb - 80f
12:30pm  -   -  4 7 mph 1009.2mb - 80f
12:20pm  -   -  7 9 mph 1009.3mb - 80f
12:10pm  -   -  9
mph
1009.3mb - 80f
12:00pm 0.7ft  -  7 9 mph 1009.4mb 80f 79f
11:50am  -   -  7 9 mph 1009.4mb - 79f
11:40am  -   -  7 9 mph 1009.4mb - 79f
11:30am  -   -  7 9 mph 1009.6mb - 79f
11:20am  -   -  7 9 mph 1009.7mb - 78f
11:10am  -   -  9 11 mph 1009.9mb - 77f
11:00am 0.7ft  -  9 11 mph 1010mb 80f 77f
10:50am  -   -  9 11 mph 1010mb - 77f
10:40am  -   -  11 16 mph 1010mb - 78f
10:30am  -   -  9 11 mph 1010mb - 78f
10:20am  -   -  9 11 mph 1010.1mb - 77f
10:10am  -   -  9 11 mph 1010.3mb - 77f
10:00am 0.3ft  -  9 11 mph 1010.5mb 80f 77f
9:50am  -   -  9 11 mph 1010.6mb - 77f
9:40am  -   -  9 13 mph 1010.8mb - 76f
9:30am  -   -  9 11 mph 1010.9mb - 76f
9:20am  -   -  11 13 mph 1011mb - 76f
9:10am  -   -  11 13 mph 1011.1mb - 76f
9:00am 0.3ft  -  11 13 mph 1011mb 79f 76f
8:50am  -   -  9 11 mph 1010.8mb - 76f
8:40am  -   -  9 11 mph 1011mb - 76f
8:30am  -   -  11
mph
1011mb - 76f
8:20am  -   -  9 11 mph 1010.9mb - 76f
8:10am  -   -  9 11 mph 1010.7mb - 76f
8:00am 0.7ft  -  9
mph
1010.5mb 79f 76f
7:50am  -   -  7 9 mph 1010.3mb - 76f
7:40am  -   -  7 9 mph 1010.2mb - 76f
7:30am  -   -  9 11 mph 1010.4mb - 76f
7:20am  -   -  9
mph
1010.4mb - 76f
7:10am  -   -  9 16 mph 1010.7mb - 76f
7:00am 0.3ft  -  11 16 mph 1010.9mb 79f 76f
6:50am  -   -  9 11 mph 1010.5mb - 76f
6:40am  -   -  9 13 mph 1010.6mb - 76f
6:30am  -   -  9 13 mph 1010.6mb - 76f
6:20am  -   -  9 13 mph 1010.5mb - 76f
6:10am  -   -  11 13 mph 1010.7mb - 76f
6:00am 0.7ft  -  11 13 mph 1010.8mb 79f 76f
5:50am  -   -  13 16 mph 1010.8mb - 76f
5:40am  -   -  13 16 mph 1010.9mb - 76f
5:30am  -   -  11 16 mph 1010.9mb - 76f
5:20am  -   -  11 16 mph 1011.1mb - 76f
5:10am  -   -  11 13 mph 1011.1mb - 76f
5:00am 1ft 2s 9 13 mph 1010.9mb 79f 77f
4:50am  -   -  9 11 mph 1010.8mb - 77f
4:40am  -   -  9 11 mph 1010.8mb - 77f
4:30am  -   -  9 11 mph 1010.9mb - 78f
4:20am  -   -  9
mph
1010.8mb - 78f
4:10am  -   -  11 13 mph 1010.7mb - 78f
4:00am 1.3ft 2s 11 13 mph 1010.6mb 79f 78f
3:50am  -   -  13 16 mph 1010.6mb - 78f
3:40am  -   -  13 16 mph 1010.6mb - 78f
3:30am  -   -  16 18 mph 1010.6mb - 78f
3:20am  -   -  16 18 mph 1010.6mb - 78f
3:10am  -   -  16 20 mph 1010.7mb - 78f
3:00am 1.3ft 2s 16 18 mph 1010.9mb 79f 78f
2:50am  -   -  16 18 mph 1011mb - 78f
2:40am  -   -  16 18 mph 1011.1mb - 78f
2:30am  -   -  13 18 mph 1011.1mb - 78f
2:20am  -   -  16 18 mph 1011.1mb - 78f
2:10am  -   -  16 18 mph 1011.3mb - 78f
2:00am 1.3ft 3s 16 20 mph 1011.4mb 80f 79f
1:50am  -   -  18 20 mph 1011.4mb - 79f
1:40am  -   -  16 18 mph 1011.4mb - 79f
1:30am  -   -  13 18 mph 1011.5mb - 79f
1:20am  -   -  13 18 mph 1011.6mb - 79f
1:10am  -   -  16 18 mph 1011.8mb - 79f
1:00am 1.3ft 3s 16 18 mph 1011.9mb 80f 79f
12:50am  -   -  16 18 mph 1012.2mb - 78f
12:40am  -   -  13 18 mph 1012.4mb - 78f
12:30am  -   -  16 18 mph 1012.4mb - 78f
12:20am  -   -  16 18 mph 1012.5mb - 78f
12:10am  -   -  13 18 mph 1012.5mb - 78f
12:00am 1.6ft 3s 16 18 mph 1012.6mb 80f 79f
Sat 07/26 11:50pm  -   -  16 20 mph 1012.6mb - 79f
11:40pm  -   -  16 18 mph 1012.8mb - 79f
11:30pm  -   -  13 18 mph 1013.1mb - 79f
11:20pm  -   -  13 16 mph 1013.4mb - 79f
11:10pm  -   -  13 16 mph 1013.4mb - 79f
11:00pm 1.3ft 2s 16 20 mph 1013.6mb 80f 78f
10:50pm  -   -  13 16 mph 1013.6mb - 78f
10:40pm  -   -  16 18 mph 1013.6mb - 79f
10:30pm  -   -  16 18 mph 1013.3mb - 79f
10:20pm  -   -  16 20 mph 1013.3mb - 79f
10:10pm  -   -  16 20 mph 1013.5mb - 79f
10:00pm 1.3ft 2s 16 20 mph 1013.7mb 80f 79f
9:50pm  -   -  16 18 mph 1013.6mb - 79f
9:40pm  -   -  13 18 mph 1013.5mb - 79f
9:30pm  -   -  16 18 mph 1013.5mb - 79f
9:20pm  -   -  16 18 mph 1013.5mb - 79f
9:10pm  -   -  13 16 mph 1013.4mb - 79f
9:00pm 1.3ft 2s 16 18 mph 1013.5mb 80f 80f
8:50pm  -   -  16 18 mph 1013.4mb - 80f
8:40pm  -   -  16 18 mph 1013.4mb - 80f
8:30pm  -   -  13 18 mph 1013.5mb - 80f
8:20pm  -   -  16 18 mph 1013.6mb - 80f
8:10pm  -   -  16 18 mph 1013.4mb - 80f
8:00pm 1ft 2s 16
mph
1013.4mb 80f 80f
7:50pm  -   -  13 16 mph 1013.3mb - 81f
7:40pm  -   -  11 13 mph 1013.3mb - 81f
7:30pm  -   -  11 13 mph 1013.4mb - 82f
7:20pm  -   -  11 13 mph 1013.4mb - 82f
7:10pm  -   -  9 11 mph 1013.4mb - 82f
7:00pm 0.7ft  -  9 11 mph 1013.3mb 80f 82f
6:50pm  -   -  9 11 mph 1013.2mb - 82f
6:40pm  -   -  9 11 mph 1013.1mb - 82f
6:30pm  -   -  9
mph
1013.2mb - 81f
6:20pm  -   -  9
mph
1013.2mb - 81f
6:10pm  -   -  7 9 mph 1013.3mb - 81f
6:00pm 0.7ft  -  9
mph
1013.4mb 82f 81f
5:50pm  -   -  7 9 mph 1013.4mb - 81f
5:40pm  -   -  9
mph
1013.6mb - 81f
5:30pm  -   -  9 11 mph 1013.8mb - 81f
5:20pm  -   -  7 9 mph 1013.8mb - 81f
5:10pm  -   -  7 9 mph 1014mb - 81f
5:00pm 0.7ft  -  7 9 mph 1014.1mb 82f 81f
4:50pm  -   -  7 9 mph 1014.2mb - 81f
4:40pm  -   -  7 9 mph 1014.2mb - 80f
4:30pm  -   -  7 9 mph 1014.1mb - 80f
4:20pm  -   -  7 9 mph 1014.2mb - 80f
4:10pm  -   -  7 9 mph 1014.2mb - 79f
4:00pm 0.7ft  -  9
mph
1014.3mb 81f 79f
3:50pm  -   -  9 11 mph 1014.4mb - 79f
3:40pm  -   -  9
mph
1014.5mb - 79f
3:30pm  -   -  9 11 mph 1014.5mb - 78f
3:20pm  -   -  9
mph
1014.6mb - 78f
3:10pm  -   -  7 9 mph 1014.8mb - 78f
3:00pm 0.7ft  -  7 9 mph 1014.8mb 82f 78f
2:50pm  -   -  7 9 mph 1015mb - 78f
2:40pm  -   -  4 7 mph 1015.1mb - 78f
2:30pm  -   -  4 7 mph 1015.1mb - 79f
2:20pm  -   -  2 4 mph 1015.1mb - 79f
2:10pm  -   -  2
mph
1015.1mb - 79f
2:00pm 1ft 2s 2 4 mph 1015.1mb 81f 79f
1:50pm  -   -  4
mph
1015.1mb - 79f
1:40pm  -   -  4 7 mph 1015.2mb - 78f
1:30pm  -   -  7 9 mph 1015.3mb - 78f
1:20pm  -   -  4 7 mph 1015.4mb - 77f
1:10pm  -   -  4
mph
1015.5mb - 77f
1:00pm 1ft 2s 4 7 mph 1015.6mb 80f 76f
12:50pm  -   -  4 7 mph 1015.6mb - 76f
12:40pm  -   -  4 7 mph 1015.7mb - 76f
12:30pm  -   -  7 9 mph 1015.8mb - 76f
12:20pm  -   -  7 11 mph 1015.9mb - 76f
12:10pm  -   -  4 7 mph 1015.9mb - 76f
12:00pm 1ft 2s 4 7 mph 1015.9mb 79f 76f
11:50am  -   -  4 7 mph 1016mb - 76f
11:40am  -   -  4 7 mph 1016.1mb - 76f
11:30am  -   -  4 7 mph 1016.2mb - 75f
11:20am  -   -  4 7 mph 1016.4mb - 75f
11:10am  -   -  7 9 mph 1016.5mb - 75f
11:00am 0.7ft  -  4 7 mph 1016.5mb 79f 75f
10:50am  -   -  4 7 mph 1016.5mb - 75f
10:40am  -   -  4 9 mph 1016.5mb - 74f
10:30am  -   -  4 7 mph 1016.5mb - 74f
10:20am  -   -  7 9 mph 1016.5mb - 74f
10:10am  -   -  7 9 mph 1016.5mb - 74f
10:00am 0.7ft  -  7 9 mph 1016.4mb 79f 74f
9:50am  -   -  9 11 mph 1016.5mb - 74f
9:40am  -   -  11 13 mph 1016.5mb - 74f
9:30am  -   -  11 13 mph 1016.4mb - 74f
9:20am  -   -  11 13 mph 1016.5mb - 74f
9:10am  -   -  9 11 mph 1016.5mb - 74f
9:00am 0.7ft  -  7 11 mph 1016.4mb 79f 73f
8:50am  -   -  7 11 mph 1016.5mb - 73f
8:40am  -   -  9 13 mph 1016.6mb - 73f
8:30am  -   -  9 11 mph 1016.5mb - 73f
8:20am  -   -  9 11 mph 1016.5mb - 73f
8:10am  -   -  9 13 mph 1016.4mb - 73f
8:00am 1ft 2s 11 13 mph 1016.4mb 79f 73f
7:50am  -   -  11 13 mph 1016.4mb - 73f
7:40am  -   -  11 16 mph 1016.5mb - 73f
7:30am  -   -  13 16 mph 1016.4mb - 74f
7:20am  -   -  13 16 mph 1016.4mb - 74f
7:10am  -   -  13 16 mph 1016.4mb - 74f
7:00am 1ft 2s 13 16 mph 1016.3mb 79f 74f
6:50am  -   -  13 18 mph 1016.4mb - 74f
6:40am  -   -  13 18 mph 1016.4mb - 74f
6:30am  -   -  13 16 mph 1016.5mb - 74f
6:20am  -   -  13 16 mph 1016.5mb - 74f
6:10am  -   -  13 16 mph 1016.4mb - 74f
6:00am 1ft 2s 13 16 mph 1016.4mb 79f 75f
5:50am  -   -  11 16 mph 1016.4mb - 75f
5:40am  -   -  13 16 mph 1016.4mb - 75f
5:30am  -   -  11 16 mph 1016.4mb - 75f
5:20am  -   -  13 16 mph 1016.4mb - 76f
5:10am  -   -  13 16 mph 1016.4mb - 76f
5:00am 0.7ft  -  13 16 mph 1016.3mb 79f 75f
4:50am  -   -  13 16 mph 1016.3mb - 75f
4:40am  -   -  13 16 mph 1016.3mb - 75f
4:30am  -   -  11 13 mph 1016.4mb - 74f
4:20am  -   -  11 13 mph 1016.4mb - 74f
4:10am  -   -  11 13 mph 1016.4mb - 74f
4:00am 0.7ft  -  11 16 mph 1016.3mb 79f 74f
3:50am  -   -  11 13 mph 1016.3mb - 74f
3:40am  -   -  11 13 mph 1016.2mb - 74f
3:30am  -   -  11 13 mph 1016.3mb - 74f
3:20am  -   -  11 13 mph 1016.4mb - 74f
3:10am  -   -  11 13 mph 1016.5mb - 74f
3:00am 1ft 2s 11 13 mph 1016.5mb 80f 74f
2:50am  -   -  11 13 mph 1016.5mb - 74f
2:40am  -   -  11 13 mph 1016.6mb - 75f
2:30am  -   -  11 13 mph 1016.6mb - 75f
2:20am  -   -  11 13 mph 1016.6mb - 75f
2:10am  -   -  11 13 mph 1016.7mb - 75f
2:00am 1ft 2s 11 13 mph 1016.9mb 79f 76f
1:50am  -   -  13 16 mph 1016.9mb - 76f
1:40am  -   -  11 16 mph 1017mb - 76f
1:30am  -   -  13 18 mph 1016.9mb - 76f
1:20am  -   -  11 16 mph 1016.9mb - 76f
1:10am  -   -  13 16 mph 1016.9mb - 77f
1:00am 1.3ft 2s 13 16 mph 1016.9mb 80f 77f
12:50am  -   -  13 16 mph 1016.9mb - 77f
12:40am  -   -  11 13 mph 1016.9mb - 77f
12:30am  -   -  13
mph
1017mb - 77f
12:20am  -   -  13 16 mph 1016.9mb - 77f
12:10am  -   -  13 16 mph 1016.9mb - 77f
12:00am 1ft 2s 13 16 mph 1016.8mb 80f 77f
Fri 07/25 11:50pm  -   -  13
mph
1016.6mb - 77f
11:40pm  -   -  13 16 mph 1016.6mb - 77f
11:30pm  -   -  11 16 mph 1016.6mb - 77f
11:20pm  -   -  13 16 mph 1016.8mb - 78f
11:10pm  -   -  13 16 mph 1016.7mb - 78f
11:00pm 1ft 2s 13 16 mph 1016.6mb 80f 78f
10:50pm  -   -  11 16 mph 1016.8mb - 78f
10:40pm  -   -  11 13 mph 1017mb - 78f
10:30pm  -   -  11 13 mph 1017mb - 78f
10:20pm  -   -  11 13 mph 1017.1mb - 78f
10:10pm  -   -  11 13 mph 1017.2mb - 78f
10:00pm 0.7ft  -  9 11 mph 1017.4mb 80f 78f
9:50pm  -   -  11 13 mph 1017.5mb - 78f
9:40pm  -   -  11 13 mph 1017.5mb - 78f
9:30pm  -   -  9 11 mph 1017.5mb - 78f
9:20pm  -   -  9 11 mph 1017.5mb - 78f
9:10pm  -   -  11 13 mph 1017.4mb - 78f
9:00pm 0.3ft  -  9 13 mph 1017.4mb 81f 78f
8:50pm  -   -  9 11 mph 1017.4mb - 78f
8:40pm  -   -  7 9 mph 1017.3mb - 78f
8:30pm  -   -  7
mph
1017.4mb - 78f
8:20pm  -   -  4 7 mph 1017.3mb - 78f
8:10pm  -   -  7 9 mph 1017.2mb - 78f
8:00pm 0.3ft  -  7 9 mph 1017.3mb 81f 79f
7:50pm  -   -  7 9 mph 1017.3mb - 79f
7:40pm  -   -  4 7 mph 1017.2mb - 79f
7:30pm  -   -  4 7 mph 1017.1mb - 79f
7:20pm  -   -  4 7 mph 1017mb - 79f
7:10pm  -   -  7 9 mph 1016.8mb - 79f
7:00pm 0.3ft  -  4 9 mph 1016.7mb 81f 79f
6:50pm  -   -  4 7 mph 1016.8mb - 79f
6:40pm  -   -  4 7 mph 1016.9mb - 79f
6:30pm  -   -  4 7 mph 1016.9mb - 79f
6:20pm  -   -  4 7 mph 1016.7mb - 78f
6:10pm  -   -  4 7 mph 1016.5mb - 78f
6:00pm 0.3ft  -  4 7 mph 1016.4mb 81f 78f
5:50pm  -   -  4 7 mph 1016.5mb - 78f
5:40pm  -   -  4 7 mph 1016.6mb - 78f
5:30pm  -   -  4
mph
1016.7mb - 78f
5:20pm  -   -  4 7 mph 1016.6mb - 78f
5:10pm  -   -  4 7 mph 1016.5mb - 78f
5:00pm 0.7ft  -  7 9 mph 1016.6mb 82f 78f
4:50pm  -   -  7 9 mph 1016.6mb - 78f
4:40pm  -   -  7 9 mph 1016.7mb - 78f
4:30pm  -   -  7 9 mph 1016.7mb - 77f
4:20pm  -   -  7 9 mph 1016.7mb - 77f
4:10pm  -   -  7 9 mph 1016.6mb - 77f
4:00pm 0.7ft  -  7 9 mph 1016.6mb 81f 77f
3:50pm  -   -  9 11 mph 1016.7mb - 76f
3:40pm  -   -  9 11 mph 1016.7mb - 76f
3:30pm  -   -  9 11 mph 1016.9mb - 76f
3:20pm  -   -  7 9 mph 1017mb - 76f
3:10pm  -   -  7 11 mph 1016.9mb - 76f
3:00pm 0.7ft  -  7 9 mph 1016.9mb 81f 76f
2:50pm  -   -  7 9 mph 1017.1mb - 76f
2:40pm  -   -  4 7 mph 1017.1mb - 76f
2:30pm  -   -  4 11 mph 1017.2mb - 76f
2:20pm  -   -  4 9 mph 1017.4mb - 76f
2:10pm  -   -  4 7 mph 1017.5mb - 76f
2:00pm 0.7ft  -  7 9 mph 1017.6mb 80f 76f
1:50pm  -   -  2 9 mph 1018mb - 76f
1:40pm  -   -  2 4 mph 1018.1mb - 76f
1:30pm  -   -  2 7 mph 1018.2mb - 76f
1:20pm  -   -  4 9 mph 1018.3mb - 76f
1:10pm  -   -  9 13 mph 1018mb - 75f
1:00pm 1ft 2s 9 11 mph 1018mb 80f 75f
12:50pm  -   -  9 13 mph 1018.1mb - 75f
12:40pm  -   -  9 11 mph 1018.2mb - 75f
12:30pm  -   -  9 16 mph 1018.3mb - 75f
12:20pm  -   -  11 16 mph 1018.4mb - 74f
12:10pm  -   -  11 16 mph 1018.4mb - 74f
12:00pm 0.7ft  -  9 13 mph 1018.4mb 79f 74f
11:50am  -   -  7 11 mph 1018.4mb - 73f
11:40am  -   -  7 13 mph 1018.5mb - 73f
11:30am  -   -  7 16 mph 1018.7mb - 73f
11:20am  -   -  7 11 mph 1018.9mb - 72f
11:10am  -   -  7 11 mph 1018.8mb - 72f
11:00am 1ft 2s 4 7 mph 1018.9mb 79f 72f
10:50am  -   -  7 9 mph 1019mb - 71f
10:40am  -   -  7 9 mph 1019.1mb - 71f
10:30am  -   -  7 11 mph 1019mb - 71f
10:20am  -   -  9 11 mph 1018.8mb - 71f
10:10am  -   -  9 13 mph 1018.7mb - 70f
10:00am 1ft 2s 9 13 mph 1018.6mb 79f 70f
9:50am  -   -  11 13 mph 1018.8mb - 70f
9:40am  -   -  11 13 mph 1018.8mb - 69f
9:30am  -   -  11 13 mph 1018.8mb - 69f
9:20am  -   -  11 13 mph 1018.6mb - 69f
9:10am  -   -  11 13 mph 1018.5mb - 69f
9:00am 1.3ft 2s 11 16 mph 1018.6mb 79f 68f
8:50am  -   -  11 16 mph 1018.7mb - 68f
8:40am  -   -  13 16 mph 1018.6mb - 68f
8:30am  -   -  13 16 mph 1018.4mb - 68f
8:20am  -   -  13 16 mph 1018.2mb - 68f
8:10am  -   -  13 16 mph 1018.1mb - 68f
8:00am 1.3ft 2s 16 18 mph 1018.1mb 79f 68f
7:50am  -   -  16 18 mph 1018.1mb - 68f
7:40am  -   -  16 18 mph 1018.1mb - 68f
7:30am  -   -  16 18 mph 1017.9mb - 68f
7:20am  -   -  16 18 mph 1017.9mb - 68f
7:10am  -   -  16 18 mph 1017.7mb - 68f
7:00am 1.3ft 2s 16 18 mph 1017.6mb 79f 68f
6:50am  -   -  16 20 mph 1017.6mb - 68f
6:40am  -   -  16 18 mph 1017.5mb - 68f
6:30am  -   -  16 18 mph 1017.4mb - 68f
6:20am  -   -  16 18 mph 1017.3mb - 68f
6:10am  -   -  16 18 mph 1017.2mb - 68f
6:00am 1.3ft 3s 16 20 mph 1017mb 79f 68f
5:50am  -   -  16 20 mph 1016.9mb - 68f
5:40am  -   -  13 18 mph 1016.8mb - 68f
5:30am  -   -  13 16 mph 1016.5mb - 69f